SWA5195 KRDU-KMEM
Flight info
| Callsign | SWA5195 |
|---|---|
| Flight time | 1h 49m |
| Altitude | 36000 |
| Route | SHPRD4 SHPRD GQO TALLO VANZE3 |
| Aircraft | B738/M-SDE2E3FGHIRWXY/LB1 |
Departure
| Time | 2026-05-08 02:06 |
|---|---|
| Airport | Raleigh-Durham International Airport (KRDU) |
Arrival
| Time | 2026-05-08 03:55 |
|---|---|
| Airport | Memphis International Airport (KMEM) |
| Time | Latitude | Longitude | Altitude | Speed | Heading |
|---|---|---|---|---|---|
| 2026-05-08 01:45 | 35.87872 | -78.79273 | 391 ft | 0 kts | 132° |
| 2026-05-08 01:59 | 35.87880 | -78.79283 | 379 ft | 4 kts | 133° |
| 2026-05-08 01:59 | 35.87900 | -78.79304 | 397 ft | 4 kts | 159° |
| 2026-05-08 01:59 | 35.87924 | -78.79307 | 391 ft | 4 kts | 207° |
| 2026-05-08 02:00 | 35.87938 | -78.79295 | 391 ft | 1 kts | 225° |
| 2026-05-08 02:00 | 35.87940 | -78.79293 | 391 ft | 0 kts | 225° |
| 2026-05-08 02:01 | 35.87939 | -78.79294 | 391 ft | 2 kts | 225° |
| 2026-05-08 02:01 | 35.87892 | -78.79352 | 391 ft | 14 kts | 225° |
| 2026-05-08 02:02 | 35.87802 | -78.79464 | 391 ft | 21 kts | 224° |
| 2026-05-08 02:02 | 35.87699 | -78.79589 | 391 ft | 20 kts | 225° |
| 2026-05-08 02:02 | 35.87600 | -78.79711 | 390 ft | 20 kts | 224° |
| 2026-05-08 02:02 | 35.87508 | -78.79826 | 390 ft | 15 kts | 225° |
| 2026-05-08 02:03 | 35.87435 | -78.79913 | 390 ft | 14 kts | 216° |
| 2026-05-08 02:03 | 35.87376 | -78.79985 | 390 ft | 7 kts | 226° |
| 2026-05-08 02:03 | 35.87350 | -78.80031 | 391 ft | 9 kts | 261° |
| 2026-05-08 02:03 | 35.87384 | -78.80098 | 391 ft | 7 kts | 315° |
| 2026-05-08 02:04 | 35.87386 | -78.80101 | 391 ft | 0 kts | 315° |
| 2026-05-08 02:04 | 35.87404 | -78.80122 | 391 ft | 12 kts | 315° |
| 2026-05-08 02:05 | 35.87461 | -78.80163 | 391 ft | 7 kts | 11° |
| 2026-05-08 02:05 | 35.87534 | -78.80088 | 390 ft | 27 kts | 45° |
| 2026-05-08 02:05 | 35.87869 | -78.79675 | 391 ft | 110 kts | 45° |
| 2026-05-08 02:05 | 35.88585 | -78.78807 | 427 ft | 173 kts | 44° |
| 2026-05-08 02:06 | 35.89509 | -78.77710 | 1122 ft | 192 kts | 43° |
| 2026-05-08 02:06 | 35.90643 | -78.76869 | 1910 ft | 198 kts | 13° |
| 2026-05-08 02:06 | 35.91984 | -78.76953 | 2719 ft | 194 kts | 335° |
| 2026-05-08 02:06 | 35.92892 | -78.78202 | 3206 ft | 214 kts | 294° |
| 2026-05-08 02:07 | 35.92922 | -78.80279 | 2722 ft | 286 kts | 253° |
| 2026-05-08 02:07 | 35.91658 | -78.82332 | 3067 ft | 320 kts | 219° |
| 2026-05-08 02:07 | 35.89649 | -78.83605 | 3813 ft | 328 kts | 201° |
| 2026-05-08 02:07 | 35.87453 | -78.83955 | 5203 ft | 317 kts | 176° |
| 2026-05-08 02:08 | 35.85443 | -78.83069 | 6423 ft | 308 kts | 146° |
| 2026-05-08 02:08 | 35.84114 | -78.80984 | 7024 ft | 324 kts | 112° |
| 2026-05-08 02:08 | 35.83829 | -78.78249 | 6686 ft | 336 kts | 82° |
| 2026-05-08 02:08 | 35.83767 | -78.75404 | 6487 ft | 329 kts | 105° |
| 2026-05-08 02:09 | 35.82773 | -78.72976 | 6584 ft | 311 kts | 132° |
| 2026-05-08 02:09 | 35.81204 | -78.71361 | 7164 ft | 287 kts | 154° |
| 2026-05-08 02:09 | 35.79366 | -78.70535 | 7720 ft | 279 kts | 181° |
| 2026-05-08 02:09 | 35.77501 | -78.70934 | 8171 ft | 271 kts | 212° |
| 2026-05-08 02:10 | 35.76037 | -78.72282 | 9113 ft | 258 kts | 232° |
| 2026-05-08 02:10 | 35.75116 | -78.74121 | 10024 ft | 252 kts | 250° |
| 2026-05-08 02:10 | 35.74734 | -78.76254 | 10480 ft | 266 kts | 268° |
| 2026-05-08 02:10 | 35.74953 | -78.78593 | 10653 ft | 291 kts | 278° |
| 2026-05-08 02:11 | 35.75367 | -78.81131 | 10824 ft | 313 kts | 279° |
| 2026-05-08 02:11 | 35.75840 | -78.83840 | 11000 ft | 333 kts | 280° |
| 2026-05-08 02:11 | 35.76336 | -78.86667 | 11460 ft | 342 kts | 280° |
| 2026-05-08 02:11 | 35.76836 | -78.89543 | 12121 ft | 344 kts | 279° |
| 2026-05-08 02:12 | 35.77330 | -78.92429 | 12862 ft | 345 kts | 279° |
| 2026-05-08 02:12 | 35.77821 | -78.95329 | 13587 ft | 347 kts | 279° |
| 2026-05-08 02:12 | 35.78311 | -78.98251 | 14223 ft | 350 kts | 279° |
| 2026-05-08 02:12 | 35.78801 | -79.01194 | 14888 ft | 351 kts | 279° |
| 2026-05-08 02:13 | 35.79291 | -79.04149 | 15580 ft | 352 kts | 279° |
| 2026-05-08 02:13 | 35.79774 | -79.07074 | 16231 ft | 354 kts | 280° |
| 2026-05-08 02:13 | 35.80267 | -79.10057 | 16883 ft | 356 kts | 280° |
| 2026-05-08 02:13 | 35.80760 | -79.13049 | 17528 ft | 357 kts | 280° |
| 2026-05-08 02:14 | 35.81255 | -79.16057 | 18150 ft | 359 kts | 280° |
| 2026-05-08 02:14 | 35.81751 | -79.19080 | 18682 ft | 361 kts | 280° |
| 2026-05-08 02:14 | 35.82249 | -79.22113 | 19235 ft | 361 kts | 279° |
| 2026-05-08 02:14 | 35.82745 | -79.25142 | 19813 ft | 361 kts | 279° |
| 2026-05-08 02:15 | 35.83213 | -79.28181 | 20339 ft | 361 kts | 276° |
| 2026-05-08 02:15 | 35.83403 | -79.31268 | 20856 ft | 362 kts | 270° |
| 2026-05-08 02:15 | 35.83259 | -79.34319 | 21363 ft | 362 kts | 265° |
| 2026-05-08 02:15 | 35.83007 | -79.37409 | 21885 ft | 363 kts | 265° |
| 2026-05-08 02:16 | 35.82758 | -79.40506 | 22390 ft | 363 kts | 265° |
| 2026-05-08 02:16 | 35.82516 | -79.43605 | 22874 ft | 365 kts | 265° |
| 2026-05-08 02:16 | 35.82277 | -79.46732 | 23254 ft | 368 kts | 265° |
| 2026-05-08 02:16 | 35.82037 | -79.49873 | 23660 ft | 369 kts | 265° |
| 2026-05-08 02:17 | 35.81791 | -79.53019 | 24068 ft | 368 kts | 264° |
| 2026-05-08 02:17 | 35.81382 | -79.56128 | 24503 ft | 368 kts | 260° |
| 2026-05-08 02:17 | 35.80859 | -79.59211 | 24929 ft | 367 kts | 260° |
| 2026-05-08 02:17 | 35.80326 | -79.62236 | 25308 ft | 366 kts | 260° |
| 2026-05-08 02:18 | 35.79785 | -79.65298 | 25648 ft | 366 kts | 260° |
| 2026-05-08 02:18 | 35.79249 | -79.68357 | 26012 ft | 365 kts | 260° |
| 2026-05-08 02:18 | 35.78716 | -79.71419 | 26319 ft | 366 kts | 260° |
| 2026-05-08 02:18 | 35.78187 | -79.74479 | 26652 ft | 366 kts | 261° |
| 2026-05-08 02:19 | 35.77657 | -79.77552 | 26977 ft | 366 kts | 261° |
| 2026-05-08 02:19 | 35.77129 | -79.80620 | 27269 ft | 367 kts | 261° |
| 2026-05-08 02:19 | 35.76600 | -79.83697 | 27531 ft | 368 kts | 261° |
| 2026-05-08 02:19 | 35.76070 | -79.86768 | 27949 ft | 365 kts | 261° |
| 2026-05-08 02:20 | 35.75553 | -79.89758 | 28496 ft | 359 kts | 261° |
| 2026-05-08 02:20 | 35.75037 | -79.92738 | 29102 ft | 353 kts | 261° |
| 2026-05-08 02:20 | 35.74528 | -79.95673 | 29608 ft | 349 kts | 261° |
| 2026-05-08 02:20 | 35.74023 | -79.98584 | 30069 ft | 346 kts | 262° |
| 2026-05-08 02:21 | 35.73522 | -80.01471 | 30448 ft | 344 kts | 261° |
| 2026-05-08 02:21 | 35.73022 | -80.04353 | 30732 ft | 345 kts | 261° |
| 2026-05-08 02:21 | 35.72521 | -80.07236 | 31046 ft | 344 kts | 261° |
| 2026-05-08 02:21 | 35.72020 | -80.10107 | 31392 ft | 342 kts | 261° |
| 2026-05-08 02:22 | 35.71528 | -80.12928 | 31730 ft | 342 kts | 261° |
| 2026-05-08 02:22 | 35.71028 | -80.15784 | 32066 ft | 341 kts | 261° |
| 2026-05-08 02:22 | 35.70531 | -80.18623 | 32501 ft | 338 kts | 261° |
| 2026-05-08 02:22 | 35.70037 | -80.21436 | 32945 ft | 335 kts | 260° |
| 2026-05-08 02:23 | 35.69547 | -80.24232 | 33262 ft | 335 kts | 260° |
| 2026-05-08 02:23 | 35.69054 | -80.27036 | 33529 ft | 335 kts | 260° |
| 2026-05-08 02:23 | 35.68562 | -80.29833 | 33868 ft | 334 kts | 260° |
| 2026-05-08 02:23 | 35.68070 | -80.32618 | 34197 ft | 333 kts | 260° |
| 2026-05-08 02:24 | 35.67580 | -80.35398 | 34457 ft | 332 kts | 260° |
| 2026-05-08 02:24 | 35.67089 | -80.38176 | 34681 ft | 333 kts | 260° |
| 2026-05-08 02:24 | 35.66604 | -80.40919 | 34942 ft | 332 kts | 260° |
| 2026-05-08 02:24 | 35.66108 | -80.43713 | 34967 ft | 337 kts | 260° |
| 2026-05-08 02:25 | 35.65158 | -80.49398 | 35000 ft | 340 kts | 262° |
| 2026-05-08 02:25 | 35.64416 | -80.55111 | 34999 ft | 336 kts | 263° |
| 2026-05-08 02:26 | 35.63704 | -80.60762 | 35004 ft | 334 kts | 263° |
| 2026-05-08 02:26 | 35.62985 | -80.66409 | 34993 ft | 339 kts | 263° |
| 2026-05-08 02:27 | 35.62246 | -80.72144 | 34993 ft | 340 kts | 263° |
| 2026-05-08 02:27 | 35.61502 | -80.77866 | 34981 ft | 336 kts | 263° |
| 2026-05-08 02:28 | 35.60766 | -80.83501 | 34996 ft | 333 kts | 262° |
| 2026-05-08 02:28 | 35.60031 | -80.89112 | 35007 ft | 337 kts | 262° |
| 2026-05-08 02:29 | 35.59280 | -80.94819 | 35006 ft | 339 kts | 263° |
| 2026-05-08 02:29 | 35.58525 | -81.00534 | 34994 ft | 339 kts | 263° |
| 2026-05-08 02:30 | 35.57774 | -81.06193 | 34994 ft | 332 kts | 263° |
| 2026-05-08 02:30 | 35.57038 | -81.11721 | 35013 ft | 330 kts | 263° |
| 2026-05-08 02:31 | 35.56289 | -81.17337 | 35021 ft | 336 kts | 262° |
| 2026-05-08 02:31 | 35.55528 | -81.23023 | 35017 ft | 338 kts | 262° |
| 2026-05-08 02:32 | 35.54760 | -81.28727 | 35019 ft | 336 kts | 263° |
| 2026-05-08 02:32 | 35.54000 | -81.34344 | 34996 ft | 332 kts | 263° |
| 2026-05-08 02:33 | 35.53249 | -81.39885 | 34989 ft | 330 kts | 263° |
| 2026-05-08 02:33 | 35.52494 | -81.45436 | 34976 ft | 331 kts | 263° |
| 2026-05-08 02:34 | 35.51729 | -81.51049 | 34974 ft | 336 kts | 262° |
| 2026-05-08 02:34 | 35.50952 | -81.56718 | 34972 ft | 337 kts | 263° |
| 2026-05-08 02:35 | 35.50183 | -81.62307 | 34965 ft | 332 kts | 263° |
| 2026-05-08 02:35 | 35.49414 | -81.67877 | 34999 ft | 330 kts | 263° |
| 2026-05-08 02:36 | 35.48643 | -81.73447 | 35001 ft | 332 kts | 263° |
| 2026-05-08 02:36 | 35.47869 | -81.79018 | 35001 ft | 330 kts | 263° |
| 2026-05-08 02:37 | 35.47101 | -81.84522 | 35002 ft | 330 kts | 262° |
| 2026-05-08 02:37 | 35.46322 | -81.90100 | 35021 ft | 334 kts | 262° |
| 2026-05-08 02:38 | 35.45529 | -81.95746 | 35017 ft | 336 kts | 262° |
| 2026-05-08 02:38 | 35.44741 | -82.01336 | 35018 ft | 331 kts | 262° |
| 2026-05-08 02:39 | 35.43958 | -82.06876 | 35013 ft | 331 kts | 262° |
| 2026-05-08 02:39 | 35.43167 | -82.12453 | 35013 ft | 333 kts | 262° |
| 2026-05-08 02:40 | 35.42369 | -82.18061 | 35001 ft | 334 kts | 262° |
| 2026-05-08 02:40 | 35.41567 | -82.23674 | 35001 ft | 334 kts | 262° |
| 2026-05-08 02:41 | 35.40765 | -82.29270 | 34987 ft | 334 kts | 262° |
| 2026-05-08 02:41 | 35.39963 | -82.34841 | 34981 ft | 333 kts | 262° |
| 2026-05-08 02:42 | 35.39157 | -82.40426 | 34973 ft | 332 kts | 262° |
| 2026-05-08 02:42 | 35.38350 | -82.45999 | 34988 ft | 333 kts | 262° |
| 2026-05-08 02:43 | 35.37539 | -82.51585 | 35036 ft | 333 kts | 262° |
| 2026-05-08 02:43 | 35.36732 | -82.57119 | 35034 ft | 332 kts | 262° |
| 2026-05-08 02:44 | 35.35919 | -82.62679 | 35029 ft | 331 kts | 262° |
| 2026-05-08 02:44 | 35.35102 | -82.68242 | 35024 ft | 332 kts | 262° |
| 2026-05-08 02:45 | 35.34289 | -82.73821 | 35025 ft | 334 kts | 262° |
| 2026-05-08 02:45 | 35.33450 | -82.79417 | 35011 ft | 334 kts | 262° |
| 2026-05-08 02:46 | 35.32620 | -82.84981 | 34992 ft | 335 kts | 262° |
| 2026-05-08 02:46 | 35.31789 | -82.90597 | 35025 ft | 336 kts | 262° |
| 2026-05-08 02:47 | 35.30955 | -82.96216 | 35007 ft | 335 kts | 262° |
| 2026-05-08 02:47 | 35.30114 | -83.01773 | 35036 ft | 334 kts | 262° |
| 2026-05-08 02:48 | 35.29270 | -83.07405 | 34993 ft | 340 kts | 262° |
| 2026-05-08 02:48 | 35.28419 | -83.13095 | 35022 ft | 338 kts | 262° |
| 2026-05-08 02:49 | 35.27562 | -83.18775 | 35019 ft | 340 kts | 261° |
| 2026-05-08 02:49 | 35.26699 | -83.24453 | 35018 ft | 339 kts | 261° |
| 2026-05-08 02:50 | 35.25845 | -83.30062 | 35011 ft | 338 kts | 261° |
| 2026-05-08 02:50 | 35.24983 | -83.35699 | 35028 ft | 336 kts | 261° |
| 2026-05-08 02:51 | 35.24119 | -83.41353 | 35017 ft | 339 kts | 261° |
| 2026-05-08 02:51 | 35.23255 | -83.46979 | 35034 ft | 336 kts | 261° |
| 2026-05-08 02:52 | 35.22388 | -83.52611 | 35034 ft | 337 kts | 261° |
| 2026-05-08 02:52 | 35.21524 | -83.58200 | 35056 ft | 336 kts | 261° |
| 2026-05-08 02:53 | 35.20649 | -83.63836 | 35069 ft | 338 kts | 261° |
| 2026-05-08 02:53 | 35.19771 | -83.69476 | 35078 ft | 337 kts | 261° |
| 2026-05-08 02:54 | 35.18894 | -83.75085 | 35087 ft | 336 kts | 261° |
| 2026-05-08 02:54 | 35.18013 | -83.80709 | 35080 ft | 340 kts | 261° |
| 2026-05-08 02:55 | 35.16690 | -83.89118 | 35084 ft | 334 kts | 261° |
| 2026-05-08 02:56 | 35.15805 | -83.94737 | 35090 ft | 339 kts | 261° |
| 2026-05-08 02:56 | 35.14915 | -84.00360 | 35032 ft | 338 kts | 261° |
| 2026-05-08 02:57 | 35.14020 | -84.05980 | 35036 ft | 337 kts | 261° |
| 2026-05-08 02:57 | 35.13125 | -84.11600 | 35047 ft | 337 kts | 261° |
| 2026-05-08 02:58 | 35.12226 | -84.17226 | 35041 ft | 337 kts | 261° |
| 2026-05-08 02:58 | 35.11336 | -84.22772 | 35034 ft | 333 kts | 261° |
| 2026-05-08 02:59 | 35.10443 | -84.28331 | 35031 ft | 338 kts | 261° |
| 2026-05-08 02:59 | 35.09519 | -84.34065 | 35038 ft | 349 kts | 261° |
| 2026-05-08 03:00 | 35.08570 | -84.39933 | 35031 ft | 354 kts | 261° |
| 2026-05-08 03:00 | 35.07616 | -84.45801 | 35035 ft | 350 kts | 261° |
| 2026-05-08 03:01 | 35.06679 | -84.51561 | 35035 ft | 349 kts | 261° |
| 2026-05-08 03:01 | 35.05727 | -84.57379 | 35033 ft | 350 kts | 261° |
| 2026-05-08 03:02 | 35.04773 | -84.63197 | 35031 ft | 347 kts | 261° |
| 2026-05-08 03:02 | 35.03825 | -84.68959 | 35049 ft | 348 kts | 260° |
| 2026-05-08 03:03 | 35.02872 | -84.74739 | 35045 ft | 351 kts | 260° |
| 2026-05-08 03:03 | 35.01905 | -84.80585 | 35036 ft | 350 kts | 260° |
| 2026-05-08 03:04 | 35.00946 | -84.86357 | 35039 ft | 345 kts | 260° |
| 2026-05-08 03:04 | 34.99996 | -84.92065 | 35049 ft | 346 kts | 260° |
| 2026-05-08 03:05 | 34.99028 | -84.97865 | 35058 ft | 351 kts | 260° |
| 2026-05-08 03:05 | 34.98049 | -85.03712 | 35058 ft | 352 kts | 260° |
| 2026-05-08 03:06 | 34.97066 | -85.09570 | 35072 ft | 353 kts | 260° |
| 2026-05-08 03:06 | 34.96096 | -85.15416 | 35055 ft | 349 kts | 262° |
| 2026-05-08 03:07 | 34.95488 | -85.21212 | 35067 ft | 346 kts | 263° |
| 2026-05-08 03:07 | 34.94925 | -85.27038 | 35060 ft | 345 kts | 263° |
| 2026-05-08 03:08 | 34.94356 | -85.32855 | 35043 ft | 347 kts | 263° |
| 2026-05-08 03:08 | 34.93774 | -85.38737 | 35039 ft | 350 kts | 263° |
| 2026-05-08 03:09 | 34.93189 | -85.44574 | 35041 ft | 348 kts | 263° |
| 2026-05-08 03:09 | 34.92601 | -85.50401 | 35040 ft | 345 kts | 263° |
| 2026-05-08 03:10 | 34.92014 | -85.56213 | 35040 ft | 346 kts | 263° |
| 2026-05-08 03:10 | 34.91420 | -85.62040 | 35054 ft | 348 kts | 263° |
| 2026-05-08 03:11 | 34.90820 | -85.67897 | 35041 ft | 354 kts | 263° |
| 2026-05-08 03:11 | 34.90208 | -85.73856 | 35046 ft | 355 kts | 263° |
| 2026-05-08 03:12 | 34.89594 | -85.79795 | 35054 ft | 353 kts | 263° |
| 2026-05-08 03:12 | 34.88976 | -85.85747 | 35059 ft | 355 kts | 263° |
| 2026-05-08 03:13 | 34.88353 | -85.91719 | 35054 ft | 354 kts | 263° |
| 2026-05-08 03:13 | 34.87736 | -85.97598 | 35050 ft | 352 kts | 263° |
| 2026-05-08 03:14 | 34.87112 | -86.03527 | 35056 ft | 354 kts | 263° |
| 2026-05-08 03:14 | 34.86479 | -86.09507 | 35053 ft | 357 kts | 263° |
| 2026-05-08 03:15 | 34.85844 | -86.15478 | 35045 ft | 354 kts | 263° |
| 2026-05-08 03:15 | 34.85216 | -86.21359 | 35049 ft | 353 kts | 263° |
| 2026-05-08 03:16 | 34.84580 | -86.27288 | 35073 ft | 355 kts | 263° |
| 2026-05-08 03:16 | 34.83936 | -86.33258 | 35073 ft | 355 kts | 263° |
| 2026-05-08 03:17 | 34.83293 | -86.39196 | 35092 ft | 353 kts | 262° |
| 2026-05-08 03:17 | 34.82648 | -86.45113 | 35092 ft | 352 kts | 263° |
| 2026-05-08 03:18 | 34.82008 | -86.50970 | 35090 ft | 352 kts | 263° |
| 2026-05-08 03:18 | 34.81359 | -86.56878 | 35105 ft | 353 kts | 262° |
| 2026-05-08 03:19 | 34.80704 | -86.62821 | 35102 ft | 355 kts | 262° |
| 2026-05-08 03:19 | 34.80043 | -86.68785 | 35058 ft | 355 kts | 262° |
| 2026-05-08 03:20 | 34.79389 | -86.74654 | 35055 ft | 351 kts | 262° |
| 2026-05-08 03:20 | 34.78732 | -86.80531 | 35064 ft | 351 kts | 262° |
| 2026-05-08 03:21 | 34.78068 | -86.86438 | 35079 ft | 354 kts | 262° |
| 2026-05-08 03:21 | 34.77399 | -86.92368 | 35072 ft | 353 kts | 262° |
| 2026-05-08 03:22 | 34.76737 | -86.98210 | 35076 ft | 351 kts | 262° |
| 2026-05-08 03:22 | 34.76071 | -87.04064 | 35077 ft | 349 kts | 262° |
| 2026-05-08 03:23 | 34.75401 | -87.09923 | 35085 ft | 352 kts | 262° |
| 2026-05-08 03:23 | 34.74720 | -87.15856 | 35079 ft | 355 kts | 262° |
| 2026-05-08 03:24 | 34.74038 | -87.21762 | 35054 ft | 353 kts | 262° |
| 2026-05-08 03:24 | 34.73357 | -87.27648 | 35064 ft | 351 kts | 262° |
| 2026-05-08 03:25 | 34.72674 | -87.33519 | 35075 ft | 352 kts | 262° |
| 2026-05-08 03:25 | 34.71993 | -87.39345 | 34531 ft | 343 kts | 262° |
| 2026-05-08 03:25 | 34.71658 | -87.42210 | 34307 ft | 343 kts | 261° |
| 2026-05-08 03:26 | 34.71318 | -87.45108 | 34211 ft | 351 kts | 261° |
| 2026-05-08 03:26 | 34.70615 | -87.51105 | 34083 ft | 364 kts | 262° |
| 2026-05-08 03:27 | 34.70241 | -87.57243 | 34078 ft | 367 kts | 265° |
| 2026-05-08 03:27 | 34.70010 | -87.63401 | 34075 ft | 364 kts | 265° |
| 2026-05-08 03:27 | 34.69889 | -87.66446 | 33920 ft | 357 kts | 265° |
| 2026-05-08 03:28 | 34.69764 | -87.69430 | 33301 ft | 353 kts | 265° |
| 2026-05-08 03:28 | 34.69633 | -87.72412 | 32458 ft | 355 kts | 265° |
| 2026-05-08 03:28 | 34.69495 | -87.75433 | 31446 ft | 362 kts | 266° |
| 2026-05-08 03:28 | 34.69351 | -87.78513 | 30441 ft | 368 kts | 266° |
| 2026-05-08 03:29 | 34.69208 | -87.81586 | 29346 ft | 371 kts | 266° |
| 2026-05-08 03:29 | 34.69059 | -87.84751 | 28007 ft | 379 kts | 266° |
| 2026-05-08 03:29 | 34.68905 | -87.87988 | 26618 ft | 389 kts | 266° |
| 2026-05-08 03:29 | 34.68748 | -87.91301 | 25311 ft | 397 kts | 267° |
| 2026-05-08 03:30 | 34.68423 | -87.98063 | 23230 ft | 401 kts | 267° |
| 2026-05-08 03:30 | 34.68098 | -88.04737 | 21639 ft | 390 kts | 267° |
| 2026-05-08 03:31 | 34.67779 | -88.11241 | 19974 ft | 383 kts | 267° |
| 2026-05-08 03:31 | 34.67462 | -88.17615 | 18465 ft | 377 kts | 267° |
| 2026-05-08 03:32 | 34.67307 | -88.20707 | 18592 ft | 363 kts | 267° |
| 2026-05-08 03:32 | 34.67151 | -88.23801 | 18641 ft | 371 kts | 267° |
| 2026-05-08 03:32 | 34.66992 | -88.26946 | 18689 ft | 375 kts | 267° |
| 2026-05-08 03:32 | 34.66831 | -88.30102 | 18685 ft | 373 kts | 267° |
| 2026-05-08 03:33 | 34.66671 | -88.33249 | 18698 ft | 373 kts | 267° |
| 2026-05-08 03:33 | 34.66509 | -88.36386 | 18699 ft | 372 kts | 267° |
| 2026-05-08 03:33 | 34.66347 | -88.39525 | 18702 ft | 372 kts | 267° |
| 2026-05-08 03:33 | 34.66187 | -88.42617 | 18705 ft | 372 kts | 267° |
| 2026-05-08 03:34 | 34.66024 | -88.45756 | 18703 ft | 372 kts | 267° |
| 2026-05-08 03:34 | 34.65859 | -88.48896 | 18706 ft | 373 kts | 267° |
| 2026-05-08 03:34 | 34.65693 | -88.52051 | 18706 ft | 375 kts | 267° |
| 2026-05-08 03:34 | 34.65526 | -88.55208 | 18711 ft | 375 kts | 267° |
| 2026-05-08 03:35 | 34.65358 | -88.58379 | 18706 ft | 376 kts | 267° |
| 2026-05-08 03:35 | 34.65188 | -88.61549 | 18708 ft | 377 kts | 267° |
| 2026-05-08 03:35 | 34.65018 | -88.64725 | 18709 ft | 377 kts | 267° |
| 2026-05-08 03:35 | 34.64874 | -88.67386 | 18708 ft | 377 kts | 266° |
| 2026-05-08 03:36 | 34.64703 | -88.70562 | 18705 ft | 377 kts | 266° |
| 2026-05-08 03:36 | 34.64530 | -88.73734 | 18709 ft | 376 kts | 266° |
| 2026-05-08 03:36 | 34.64357 | -88.76903 | 18707 ft | 376 kts | 266° |
| 2026-05-08 03:36 | 34.64183 | -88.80072 | 18711 ft | 376 kts | 266° |
| 2026-05-08 03:37 | 34.64009 | -88.83238 | 18711 ft | 376 kts | 266° |
| 2026-05-08 03:37 | 34.63833 | -88.86402 | 18705 ft | 376 kts | 266° |
| 2026-05-08 03:37 | 34.63721 | -88.89567 | 18703 ft | 376 kts | 272° |
| 2026-05-08 03:37 | 34.64156 | -88.92651 | 18715 ft | 377 kts | 283° |
| 2026-05-08 03:38 | 34.64878 | -88.95720 | 18706 ft | 378 kts | 283° |
| 2026-05-08 03:38 | 34.65585 | -88.98789 | 18707 ft | 378 kts | 283° |
| 2026-05-08 03:38 | 34.66275 | -89.01873 | 18707 ft | 378 kts | 283° |
| 2026-05-08 03:38 | 34.66953 | -89.04961 | 18703 ft | 378 kts | 283° |
| 2026-05-08 03:39 | 34.67625 | -89.08047 | 18705 ft | 378 kts | 283° |
| 2026-05-08 03:39 | 34.68267 | -89.11137 | 18696 ft | 372 kts | 281° |
| 2026-05-08 03:39 | 34.68844 | -89.14123 | 18592 ft | 355 kts | 281° |
| 2026-05-08 03:39 | 34.69398 | -89.17053 | 17396 ft | 363 kts | 281° |
| 2026-05-08 03:40 | 34.69968 | -89.20074 | 16172 ft | 372 kts | 282° |
| 2026-05-08 03:40 | 34.70557 | -89.23168 | 15035 ft | 376 kts | 282° |
| 2026-05-08 03:40 | 34.71132 | -89.26159 | 14683 ft | 360 kts | 282° |
| 2026-05-08 03:40 | 34.71681 | -89.29006 | 14534 ft | 333 kts | 282° |
| 2026-05-08 03:41 | 34.72174 | -89.31645 | 14389 ft | 309 kts | 281° |
| 2026-05-08 03:41 | 34.72581 | -89.34116 | 14259 ft | 288 kts | 280° |
| 2026-05-08 03:41 | 34.72946 | -89.36472 | 13340 ft | 291 kts | 280° |
| 2026-05-08 03:41 | 34.73346 | -89.38957 | 12136 ft | 306 kts | 282° |
| 2026-05-08 03:42 | 34.73796 | -89.41536 | 10920 ft | 317 kts | 283° |
| 2026-05-08 03:42 | 34.74294 | -89.44155 | 10362 ft | 310 kts | 284° |
| 2026-05-08 03:42 | 34.74780 | -89.46624 | 10195 ft | 290 kts | 284° |
| 2026-05-08 03:42 | 34.75240 | -89.48931 | 10054 ft | 272 kts | 284° |
| 2026-05-08 03:43 | 34.75667 | -89.51062 | 9991 ft | 253 kts | 284° |
| 2026-05-08 03:43 | 34.76071 | -89.53064 | 9964 ft | 234 kts | 285° |
| 2026-05-08 03:43 | 34.76452 | -89.54912 | 9972 ft | 217 kts | 285° |
| 2026-05-08 03:43 | 34.76806 | -89.56660 | 9990 ft | 212 kts | 285° |
| 2026-05-08 03:44 | 34.77155 | -89.58410 | 9990 ft | 213 kts | 284° |
| 2026-05-08 03:44 | 34.77495 | -89.60158 | 9990 ft | 212 kts | 282° |
| 2026-05-08 03:44 | 34.77515 | -89.61940 | 9942 ft | 211 kts | 268° |
| 2026-05-08 03:44 | 34.77378 | -89.63695 | 9743 ft | 206 kts | 268° |
| 2026-05-08 03:45 | 34.77245 | -89.65423 | 9280 ft | 205 kts | 268° |
| 2026-05-08 03:45 | 34.77113 | -89.67164 | 8724 ft | 208 kts | 268° |
| 2026-05-08 03:45 | 34.76984 | -89.68912 | 8189 ft | 207 kts | 268° |
| 2026-05-08 03:45 | 34.76856 | -89.70661 | 7617 ft | 208 kts | 268° |
| 2026-05-08 03:46 | 34.76732 | -89.72403 | 7025 ft | 210 kts | 268° |
| 2026-05-08 03:46 | 34.76608 | -89.74178 | 6472 ft | 211 kts | 268° |
| 2026-05-08 03:46 | 34.76490 | -89.75957 | 5896 ft | 211 kts | 268° |
| 2026-05-08 03:46 | 34.76383 | -89.77726 | 5445 ft | 206 kts | 268° |
| 2026-05-08 03:47 | 34.76291 | -89.79456 | 4870 ft | 208 kts | 268° |
| 2026-05-08 03:47 | 34.76212 | -89.81232 | 4254 ft | 211 kts | 268° |
| 2026-05-08 03:47 | 34.76142 | -89.83003 | 3741 ft | 209 kts | 268° |
| 2026-05-08 03:47 | 34.76076 | -89.84759 | 3236 ft | 206 kts | 268° |
| 2026-05-08 03:48 | 34.76261 | -89.86476 | 3042 ft | 208 kts | 295° |
| 2026-05-08 03:48 | 34.77043 | -89.87915 | 3007 ft | 207 kts | 307° |
| 2026-05-08 03:48 | 34.77913 | -89.89306 | 2996 ft | 205 kts | 308° |
| 2026-05-08 03:48 | 34.78766 | -89.90653 | 2983 ft | 197 kts | 308° |
| 2026-05-08 03:49 | 34.79598 | -89.91963 | 2986 ft | 196 kts | 308° |
| 2026-05-08 03:49 | 34.80434 | -89.93276 | 2993 ft | 197 kts | 308° |
| 2026-05-08 03:49 | 34.81366 | -89.94494 | 2984 ft | 197 kts | 324° |
| 2026-05-08 03:49 | 34.82550 | -89.95292 | 2881 ft | 192 kts | 335° |
| 2026-05-08 03:50 | 34.83753 | -89.95974 | 2482 ft | 191 kts | 335° |
| 2026-05-08 03:50 | 34.84962 | -89.96663 | 2112 ft | 194 kts | 335° |
| 2026-05-08 03:50 | 34.86157 | -89.97356 | 2046 ft | 184 kts | 335° |
| 2026-05-08 03:50 | 34.87273 | -89.98008 | 1990 ft | 170 kts | 335° |
| 2026-05-08 03:51 | 34.88317 | -89.98344 | 1980 ft | 149 kts | 2° |
| 2026-05-08 03:51 | 34.89320 | -89.98361 | 1987 ft | 144 kts | 358° |
| 2026-05-08 03:51 | 34.90324 | -89.98414 | 2049 ft | 143 kts | 359° |
| 2026-05-08 03:51 | 34.91310 | -89.98446 | 2012 ft | 141 kts | 359° |
| 2026-05-08 03:52 | 34.92287 | -89.98470 | 1999 ft | 140 kts | 359° |
| 2026-05-08 03:52 | 34.93267 | -89.98492 | 1999 ft | 141 kts | 359° |
| 2026-05-08 03:52 | 34.94252 | -89.98513 | 1923 ft | 143 kts | 360° |
| 2026-05-08 03:52 | 34.95241 | -89.98534 | 1746 ft | 141 kts | 360° |
| 2026-05-08 03:53 | 34.96219 | -89.98555 | 1562 ft | 141 kts | 360° |
| 2026-05-08 03:53 | 34.97198 | -89.98581 | 1362 ft | 140 kts | 359° |
| 2026-05-08 03:53 | 34.98156 | -89.98609 | 1213 ft | 139 kts | 359° |
| 2026-05-08 03:53 | 34.99126 | -89.98652 | 1089 ft | 142 kts | 358° |
| 2026-05-08 03:54 | 35.00131 | -89.98658 | 844 ft | 145 kts | 1° |
| 2026-05-08 03:54 | 35.01120 | -89.98673 | 685 ft | 140 kts | 1° |
| 2026-05-08 03:54 | 35.02087 | -89.98681 | 485 ft | 136 kts | 359° |
| 2026-05-08 03:54 | 35.03024 | -89.98714 | 336 ft | 132 kts | 1° |
| 2026-05-08 03:55 | 35.03701 | -89.98718 | 330 ft | 59 kts | 358° |
| 2026-05-08 03:55 | 35.03962 | -89.98722 | 326 ft | 24 kts | 359° |
| 2026-05-08 03:55 | 35.04121 | -89.98724 | 326 ft | 21 kts | 4° |
| 2026-05-08 03:55 | 35.04164 | -89.98709 | 327 ft | 4 kts | 28° |
| 2026-05-08 03:56 | 35.04189 | -89.98657 | 328 ft | 4 kts | 91° |
| 2026-05-08 03:56 | 35.04189 | -89.98655 | 328 ft | 0 kts | 91° |
| 2026-05-08 03:56 | 35.04186 | -89.98631 | 328 ft | 8 kts | 109° |
| 2026-05-08 03:57 | 35.04113 | -89.98589 | 327 ft | 17 kts | 187° |
| 2026-05-08 03:57 | 35.04029 | -89.98589 | 329 ft | 9 kts | 179° |
| 2026-05-08 03:57 | 35.03964 | -89.98589 | 327 ft | 9 kts | 180° |
| 2026-05-08 03:57 | 35.03893 | -89.98569 | 329 ft | 12 kts | 133° |
| 2026-05-08 03:58 | 35.03880 | -89.98472 | 329 ft | 12 kts | 90° |
| 2026-05-08 03:58 | 35.03882 | -89.98375 | 330 ft | 11 kts | 89° |
| 2026-05-08 03:58 | 35.03883 | -89.98318 | 330 ft | 5 kts | 89° |
| 2026-05-08 03:58 | 35.03913 | -89.98276 | 328 ft | 11 kts | 16° |
| 2026-05-08 03:59 | 35.03981 | -89.98298 | 326 ft | 7 kts | 329° |
| 2026-05-08 03:59 | 35.04008 | -89.98318 | 328 ft | 3 kts | 328° |
| 2026-05-08 03:59 | 35.04020 | -89.98327 | 330 ft | 0 kts | 328° |